createdAt,value
2023-02-18T00:02:05.187Z,2.20
2023-02-18T00:04:31.753Z,2.55
2023-02-18T00:06:58.207Z,2.05
2023-02-18T00:09:24.678Z,1.60
2023-02-18T00:11:51.137Z,0.77
2023-02-18T00:14:17.606Z,0.70
2023-02-18T00:16:44.093Z,0.80
2023-02-18T00:19:10.584Z,1.77
2023-02-18T00:21:37.097Z,1.02
2023-02-18T00:24:03.586Z,0.93
2023-02-18T00:26:30.107Z,1.70
2023-02-18T00:28:56.561Z,1.20
2023-02-18T00:31:23.208Z,0.57
2023-02-18T00:33:49.705Z,1.02
2023-02-18T00:36:16.172Z,0.40
2023-02-18T00:38:42.660Z,2.00
2023-02-18T00:41:09.111Z,0.60
2023-02-18T00:43:35.603Z,0.98
2023-02-18T00:46:02.168Z,1.40
2023-02-18T00:48:28.665Z,0.90
2023-02-18T00:50:55.160Z,0.70
2023-02-18T00:53:21.652Z,1.50
2023-02-18T00:55:48.143Z,0.85
2023-02-18T00:58:14.646Z,1.35
2023-02-18T01:00:41.136Z,1.35
2023-02-18T01:03:07.680Z,1.67
2023-02-18T01:05:34.175Z,1.42
2023-02-18T01:08:00.669Z,0.80
2023-02-18T01:10:27.173Z,1.45
2023-02-18T01:12:53.647Z,0.55
2023-02-18T01:15:20.122Z,0.80
2023-02-18T01:17:46.610Z,1.10
2023-02-18T01:20:13.088Z,0.70
2023-02-18T01:22:39.618Z,1.38
2023-02-18T01:25:06.113Z,1.13
2023-02-18T01:27:32.579Z,0.73
2023-02-18T01:29:59.041Z,1.20
2023-02-18T01:32:25.569Z,1.27
2023-02-18T01:34:52.070Z,0.93
2023-02-18T01:37:18.583Z,1.83
2023-02-18T01:39:45.096Z,0.95
2023-02-18T01:42:11.605Z,1.00
2023-02-18T01:44:38.068Z,0.70
2023-02-18T01:47:04.544Z,0.68
2023-02-18T01:49:30.995Z,1.40
2023-02-18T01:51:57.481Z,0.82
2023-02-18T01:54:23.940Z,0.68
2023-02-18T01:56:50.421Z,0.70
2023-02-18T01:59:16.928Z,1.17
2023-02-18T02:01:43.448Z,1.38
2023-02-18T02:04:09.993Z,1.02
2023-02-18T02:06:36.591Z,1.55
2023-02-18T02:09:03.097Z,1.08
2023-02-18T02:11:29.593Z,1.20
2023-02-18T02:13:56.039Z,1.02
2023-02-18T02:16:22.558Z,1.00
2023-02-18T02:18:49.066Z,0.98
2023-02-18T02:21:15.597Z,1.30
2023-02-18T02:23:42.066Z,1.10
2023-02-18T02:26:08.866Z,0.68
2023-02-18T02:28:35.506Z,0.68
2023-02-18T02:31:02.133Z,0.90
2023-02-18T02:33:28.627Z,1.20
2023-02-18T02:35:55.113Z,0.75
2023-02-18T02:38:21.632Z,1.08
2023-02-18T02:40:48.085Z,0.90
2023-02-18T02:43:14.557Z,1.40
2023-02-18T02:45:41.088Z,1.17
2023-02-18T02:48:07.626Z,0.82
2023-02-18T02:50:34.087Z,1.65
2023-02-18T02:53:00.570Z,0.70
2023-02-18T02:55:27.050Z,1.10
2023-02-18T02:57:53.539Z,0.35
2023-02-18T03:00:20.001Z,0.95
2023-02-18T03:02:46.513Z,0.90
2023-02-18T03:05:13.045Z,0.90
2023-02-18T03:07:39.508Z,1.00
2023-02-18T03:10:05.963Z,1.17
2023-02-18T03:12:32.418Z,1.05
2023-02-18T03:14:58.876Z,0.75
2023-02-18T03:17:25.326Z,0.55
2023-02-18T03:19:51.804Z,0.77
2023-02-18T03:22:18.348Z,0.50
2023-02-18T03:24:44.809Z,0.98
2023-02-18T03:27:11.276Z,1.38
2023-02-18T03:29:37.732Z,0.80
2023-02-18T03:32:04.318Z,0.90
2023-02-18T03:34:30.840Z,1.30
2023-02-18T03:36:57.335Z,0.75
2023-02-18T03:39:23.828Z,0.68
2023-02-18T03:41:50.292Z,0.45
2023-02-18T03:44:16.773Z,1.05
2023-02-18T03:46:43.266Z,0.77
2023-02-18T03:49:09.725Z,0.80
2023-02-18T03:51:36.176Z,1.13
2023-02-18T03:54:02.649Z,0.82
2023-02-18T03:56:29.132Z,0.55
2023-02-18T03:58:55.595Z,0.90
2023-02-18T04:01:22.165Z,1.10
2023-02-18T04:03:48.719Z,0.65
2023-02-18T04:06:15.160Z,0.50
2023-02-18T04:08:41.607Z,0.47
2023-02-18T04:11:08.064Z,0.75
2023-02-18T04:13:34.586Z,1.05
2023-02-18T04:16:01.096Z,1.35
2023-02-18T04:18:27.571Z,0.88
2023-02-18T04:20:54.101Z,0.70
2023-02-18T04:23:20.609Z,0.75
2023-02-18T04:25:47.061Z,0.85
2023-02-18T04:28:13.566Z,0.98
2023-02-18T04:30:40.167Z,1.55
2023-02-18T04:33:06.812Z,0.60
2023-02-18T04:35:33.322Z,0.82
2023-02-18T04:37:59.958Z,1.10
2023-02-18T04:40:26.428Z,1.08
2023-02-18T04:42:52.940Z,1.00
2023-02-18T04:45:19.404Z,0.82
2023-02-18T04:47:45.902Z,0.35
2023-02-18T04:50:12.386Z,1.15
2023-02-18T04:52:38.855Z,0.55
2023-02-18T04:55:05.327Z,1.02
2023-02-18T04:57:31.809Z,1.05
2023-02-18T04:59:58.251Z,1.20
2023-02-18T05:02:24.734Z,0.63
2023-02-18T05:04:51.263Z,0.75
2023-02-18T05:07:17.784Z,0.47
2023-02-18T05:09:44.302Z,0.93
2023-02-18T05:12:10.762Z,1.17
2023-02-18T05:14:37.210Z,0.98
2023-02-18T05:17:03.707Z,0.57
2023-02-18T05:19:30.268Z,1.00
2023-02-18T05:21:56.768Z,1.20
2023-02-18T05:24:23.233Z,1.20
2023-02-18T05:26:49.730Z,1.25
2023-02-18T05:29:16.182Z,0.70
2023-02-18T05:31:42.752Z,0.73
2023-02-18T05:34:09.266Z,0.82
2023-02-18T05:36:35.751Z,0.77
2023-02-18T05:39:02.246Z,0.93
2023-02-18T05:41:28.733Z,0.90
2023-02-18T05:43:55.241Z,0.98
2023-02-18T05:46:21.709Z,0.77
2023-02-18T05:48:48.207Z,0.68
2023-02-18T05:51:14.715Z,1.95
2023-02-18T05:53:41.202Z,0.60
2023-02-18T05:56:08.017Z,1.02
2023-02-18T05:58:34.705Z,0.97
2023-02-18T06:01:01.185Z,0.88
2023-02-18T06:03:27.647Z,0.82
2023-02-18T06:05:54.153Z,0.90
2023-02-18T06:08:20.630Z,0.82
2023-02-18T06:10:47.141Z,1.00
2023-02-18T06:13:13.634Z,0.80
2023-02-18T06:15:40.090Z,1.65
2023-02-18T06:18:06.545Z,0.95
2023-02-18T06:20:33.047Z,1.17
2023-02-18T06:22:59.512Z,1.00
2023-02-18T06:25:26.100Z,0.65
2023-02-18T06:27:52.548Z,2.58
2023-02-18T06:30:19.015Z,1.48
2023-02-18T06:32:45.522Z,0.63
2023-02-18T06:35:12.056Z,1.20
2023-02-18T06:37:38.517Z,2.30
2023-02-18T06:40:05.011Z,1.42
2023-02-18T06:42:31.569Z,2.78
2023-02-18T06:44:58.022Z,1.40
2023-02-18T06:47:24.515Z,1.02
2023-02-18T06:49:51.005Z,1.98
2023-02-18T06:52:17.493Z,1.05
2023-02-18T06:54:43.987Z,1.65
2023-02-18T06:57:10.479Z,2.55
2023-02-18T06:59:36.935Z,3.78
2023-02-18T07:02:03.447Z,1.20
2023-02-18T07:04:29.942Z,1.73
2023-02-18T07:06:56.432Z,1.42
2023-02-18T07:09:22.927Z,1.85
2023-02-18T07:11:49.448Z,1.42
2023-02-18T07:14:15.911Z,2.17
2023-02-18T07:16:42.464Z,1.35
2023-02-18T07:19:08.988Z,0.90
2023-02-18T07:21:35.533Z,1.42
2023-02-18T07:24:02.040Z,3.03
2023-02-18T07:26:28.530Z,3.63
2023-02-18T07:28:55.005Z,1.40
2023-02-18T07:31:21.571Z,3.38
2023-02-18T07:33:48.079Z,2.80
2023-02-18T07:36:14.555Z,3.72
2023-02-18T07:38:42.135Z,5.32
2023-02-18T07:41:09.432Z,8.80
2023-02-18T07:43:35.905Z,2.88
2023-02-18T07:46:02.432Z,5.43
2023-02-18T07:48:28.962Z,3.00
2023-02-18T07:50:55.468Z,5.88
2023-02-18T07:53:21.987Z,4.30
2023-02-18T07:55:48.459Z,10.02
2023-02-18T07:58:14.927Z,2.13
2023-02-18T08:00:41.387Z,5.80
2023-02-18T08:03:07.873Z,5.43
2023-02-18T08:05:34.377Z,5.00
2023-02-18T08:08:00.818Z,7.78
2023-02-18T08:10:27.348Z,5.28
2023-02-18T08:12:53.857Z,4.32
2023-02-18T08:15:20.365Z,7.93
2023-02-18T08:17:46.818Z,1.83
2023-02-18T08:20:13.313Z,4.13
2023-02-18T08:22:39.806Z,3.90
2023-02-18T08:25:06.312Z,8.05
2023-02-18T08:27:32.801Z,5.63
2023-02-18T08:29:59.296Z,5.22
2023-02-18T08:32:25.756Z,6.35
2023-02-18T08:34:52.259Z,9.15
2023-02-18T08:37:18.796Z,3.65
2023-02-18T08:39:45.264Z,9.63
2023-02-18T08:42:11.773Z,5.28
2023-02-18T08:44:38.261Z,6.78
2023-02-18T08:47:04.763Z,3.03
2023-02-18T08:49:51.208Z,3.17
2023-02-18T08:52:17.742Z,5.30
2023-02-18T08:54:44.417Z,3.00
2023-02-18T08:57:10.882Z,6.65
2023-02-18T08:59:37.324Z,4.88
2023-02-18T09:02:03.778Z,3.35
2023-02-18T09:04:30.317Z,7.15
2023-02-18T09:06:56.803Z,3.30
2023-02-18T09:09:23.290Z,3.03
2023-02-18T09:11:49.734Z,5.07
2023-02-18T09:14:16.208Z,17.42
2023-02-18T09:16:42.703Z,9.07
2023-02-18T09:19:09.151Z,2.95
2023-02-18T09:21:35.642Z,3.17
2023-02-18T09:24:02.141Z,3.97
2023-02-18T09:26:28.660Z,5.63
2023-02-18T09:28:55.114Z,9.18
2023-02-18T09:31:21.712Z,9.60
2023-02-18T09:33:48.196Z,7.97
2023-02-18T09:36:14.667Z,4.43
2023-02-18T09:38:41.156Z,10.63
2023-02-18T09:41:07.976Z,11.02
2023-02-18T09:43:34.607Z,18.67
2023-02-18T09:46:01.176Z,15.70
2023-02-18T09:48:27.679Z,7.00
2023-02-18T09:50:54.126Z,14.20
2023-02-18T09:53:20.653Z,15.38
2023-02-18T09:55:47.105Z,13.20
2023-02-18T09:58:13.580Z,11.73
2023-02-18T10:00:40.030Z,7.18
2023-02-18T10:03:06.515Z,9.57
2023-02-18T10:05:32.985Z,13.40
2023-02-18T10:07:59.451Z,15.48
2023-02-18T10:10:25.902Z,9.38
2023-02-18T10:12:52.385Z,6.32
2023-02-18T10:15:18.883Z,11.20
2023-02-18T10:17:46.974Z,14.75
2023-02-18T10:20:14.293Z,7.13
2023-02-18T10:22:40.759Z,8.80
2023-02-18T10:25:07.216Z,3.53
2023-02-18T10:27:33.695Z,3.47
2023-02-18T10:30:00.305Z,4.80
2023-02-18T10:32:26.833Z,5.78
2023-02-18T10:34:53.317Z,4.13
2023-02-18T10:37:19.800Z,6.57
2023-02-18T10:39:46.291Z,6.05
2023-02-18T10:42:12.801Z,4.57
2023-02-18T10:44:39.303Z,1.95
2023-02-18T10:47:05.783Z,6.53
2023-02-18T10:49:32.265Z,5.72
2023-02-18T10:51:58.797Z,3.85
2023-02-18T10:54:25.272Z,5.88
2023-02-18T10:56:51.747Z,4.22
2023-02-18T10:59:18.238Z,3.40
2023-02-18T11:01:44.775Z,1.67
2023-02-18T11:04:11.334Z,2.63
2023-02-18T11:06:37.803Z,3.75
2023-02-18T11:09:04.288Z,3.92
2023-02-18T11:11:30.779Z,1.83
2023-02-18T11:13:57.251Z,2.97
2023-02-18T11:16:23.764Z,1.15
2023-02-18T11:18:50.288Z,4.25
2023-02-18T11:21:16.740Z,3.17
2023-02-18T11:23:43.261Z,4.03
2023-02-18T11:26:09.722Z,4.03
2023-02-18T11:28:36.254Z,1.48
2023-02-18T11:31:02.824Z,2.38
2023-02-18T11:33:29.377Z,1.15
2023-02-18T11:35:55.865Z,2.03
2023-02-18T11:38:22.352Z,2.75
2023-02-18T11:40:48.805Z,2.75
2023-02-18T11:43:15.283Z,6.32
2023-02-18T11:45:41.798Z,8.45
2023-02-18T11:48:08.327Z,3.67
2023-02-18T11:50:34.814Z,4.07
2023-02-18T11:53:01.296Z,6.43
2023-02-18T11:55:27.828Z,18.48
2023-02-18T11:57:54.304Z,21.73
2023-02-18T12:00:20.763Z,35.65
2023-02-18T12:02:47.225Z,12.15
2023-02-18T12:05:13.733Z,4.35
2023-02-18T12:07:40.226Z,7.03
2023-02-18T12:10:06.723Z,10.40
2023-02-18T12:12:33.229Z,11.68
2023-02-18T12:14:59.708Z,11.30
2023-02-18T12:17:26.367Z,10.48
2023-02-18T12:19:53.051Z,10.20
2023-02-18T12:22:19.561Z,6.50
2023-02-18T12:24:46.056Z,6.72
2023-02-18T12:27:12.551Z,4.32
2023-02-18T12:29:39.038Z,8.93
2023-02-18T12:32:05.512Z,6.63
2023-02-18T12:34:32.113Z,19.08
2023-02-18T12:36:58.578Z,6.30
2023-02-18T12:39:25.094Z,7.50
2023-02-18T12:41:51.562Z,6.95
2023-02-18T12:44:18.080Z,16.95
2023-02-18T12:46:44.578Z,7.40
2023-02-18T12:49:11.046Z,8.75
2023-02-18T12:51:37.502Z,5.05
2023-02-18T12:54:06.002Z,6.68
2023-02-18T12:56:33.479Z,5.20
2023-02-18T12:58:59.981Z,10.65
2023-02-18T13:01:26.465Z,4.95
2023-02-18T13:03:52.977Z,5.40
2023-02-18T13:06:19.448Z,7.97
2023-02-18T13:08:45.898Z,10.70
2023-02-18T13:11:12.350Z,6.90
2023-02-18T13:13:38.848Z,4.82
2023-02-18T13:16:05.350Z,11.73
2023-02-18T13:18:31.810Z,8.57
2023-02-18T13:20:58.285Z,8.80
2023-02-18T13:23:24.785Z,4.13
2023-02-18T13:25:51.258Z,4.70
2023-02-18T13:28:17.744Z,2.45
2023-02-18T13:30:44.367Z,4.00
2023-02-18T13:33:10.940Z,10.40
2023-02-18T13:35:37.465Z,4.70
2023-02-18T13:38:04.008Z,12.07
2023-02-18T13:40:30.486Z,1.95
2023-02-18T13:42:58.191Z,3.17
2023-02-18T13:45:24.698Z,4.35
2023-02-18T13:47:51.180Z,2.88
2023-02-18T13:50:17.668Z,4.03
2023-02-18T13:52:44.166Z,6.68
2023-02-18T13:55:10.664Z,13.68
2023-02-18T13:57:37.104Z,8.55
2023-02-18T14:00:03.565Z,6.70
2023-02-18T14:02:30.167Z,2.97
2023-02-18T14:04:56.708Z,6.60
2023-02-18T14:07:23.227Z,5.13
2023-02-18T14:09:49.680Z,5.07
2023-02-18T14:12:16.129Z,8.10
2023-02-18T14:14:42.602Z,4.70
2023-02-18T14:17:09.054Z,6.18
2023-02-18T14:19:35.501Z,8.63
2023-02-18T14:22:02.021Z,2.75
2023-02-18T14:24:28.550Z,4.45
2023-02-18T14:26:55.046Z,7.22
2023-02-18T14:29:21.555Z,6.05
2023-02-18T14:31:48.078Z,8.98
2023-02-18T14:34:14.620Z,12.55
2023-02-18T14:36:41.060Z,11.13
2023-02-18T14:39:07.599Z,4.90
2023-02-18T14:41:34.087Z,3.92
2023-02-18T14:44:00.569Z,13.63
2023-02-18T14:46:27.150Z,5.55
2023-02-18T14:48:53.655Z,12.02
2023-02-18T14:51:20.109Z,10.20
2023-02-18T14:53:46.555Z,10.20
2023-02-18T14:56:13.056Z,8.20
2023-02-18T14:58:39.546Z,9.55
2023-02-18T15:01:06.046Z,7.50
2023-02-18T15:03:32.604Z,5.78
2023-02-18T15:05:59.226Z,10.68
2023-02-18T15:08:25.755Z,10.43
2023-02-18T15:10:52.270Z,8.75
2023-02-18T15:13:18.824Z,9.18
2023-02-18T15:15:45.308Z,7.75
2023-02-18T15:18:11.809Z,7.55
2023-02-18T15:20:38.303Z,6.10
2023-02-18T15:23:04.784Z,7.68
2023-02-18T15:25:31.295Z,6.75
2023-02-18T15:27:57.765Z,6.82
2023-02-18T15:30:24.391Z,5.10
2023-02-18T15:32:50.976Z,8.32
2023-02-18T15:35:17.480Z,17.40
2023-02-18T15:37:43.945Z,6.55
2023-02-18T15:40:10.409Z,5.03
2023-02-18T15:42:36.852Z,10.57
2023-02-18T15:45:03.364Z,7.68
2023-02-18T15:47:29.854Z,3.38
2023-02-18T15:49:56.317Z,3.75
2023-02-18T15:52:22.818Z,2.97
2023-02-18T15:54:49.313Z,5.80
2023-02-18T15:57:15.785Z,4.30
2023-02-18T15:59:42.283Z,9.70
2023-02-18T16:02:08.895Z,4.80
2023-02-18T16:04:35.415Z,7.13
2023-02-18T16:07:01.923Z,5.15
2023-02-18T16:09:28.381Z,5.20
2023-02-18T16:11:54.906Z,4.25
2023-02-18T16:14:21.393Z,6.47
2023-02-18T16:16:47.996Z,3.22
2023-02-18T16:19:14.507Z,6.90
2023-02-18T16:21:41.010Z,2.35
2023-02-18T16:24:07.476Z,5.60
2023-02-18T16:26:33.974Z,4.53
2023-02-18T16:29:00.446Z,6.78
2023-02-18T16:31:26.956Z,8.95
2023-02-18T16:33:53.420Z,5.78
2023-02-18T16:36:19.873Z,8.85
2023-02-18T16:38:46.331Z,8.20
2023-02-18T16:41:12.832Z,9.77
2023-02-18T16:43:39.359Z,7.03
2023-02-18T16:46:05.970Z,6.25
2023-02-18T16:48:32.519Z,10.10
2023-02-18T16:50:59.069Z,4.63
2023-02-18T16:53:25.615Z,5.15
2023-02-18T16:55:52.075Z,9.38
2023-02-18T16:58:18.549Z,3.40
2023-02-18T17:00:45.159Z,10.02
2023-02-18T17:03:11.728Z,8.13
2023-02-18T17:05:38.685Z,5.95
2023-02-18T17:08:05.365Z,3.40
2023-02-18T17:10:31.859Z,5.70
2023-02-18T17:12:58.411Z,7.63
2023-02-18T17:15:24.978Z,12.40
2023-02-18T17:17:51.486Z,16.73
2023-02-18T17:20:18.038Z,5.18
2023-02-18T17:22:44.605Z,7.20
2023-02-18T17:25:11.121Z,4.95
2023-02-18T17:27:37.606Z,17.77
2023-02-18T17:30:04.096Z,8.60
2023-02-18T17:32:30.586Z,8.05
2023-02-18T17:34:57.085Z,3.83
2023-02-18T17:37:23.547Z,5.72
2023-02-18T17:39:50.019Z,6.22
2023-02-18T17:42:16.531Z,4.43
2023-02-18T17:44:42.976Z,12.15
2023-02-18T17:47:09.483Z,5.75
2023-02-18T17:49:35.967Z,2.53
2023-02-18T17:52:02.496Z,5.53
2023-02-18T17:54:29.019Z,5.30
2023-02-18T17:56:55.480Z,4.72
2023-02-18T17:59:21.967Z,8.85
2023-02-18T18:01:48.441Z,10.40
2023-02-18T18:04:14.969Z,3.88
2023-02-18T18:06:41.445Z,2.30
2023-02-18T18:09:07.903Z,2.30
2023-02-18T18:11:34.376Z,6.15
2023-02-18T18:14:00.858Z,3.83
2023-02-18T18:16:27.391Z,6.18
2023-02-18T18:18:53.916Z,3.47
2023-02-18T18:21:20.410Z,2.67
2023-02-18T18:23:46.906Z,3.67
2023-02-18T18:26:13.408Z,4.40
2023-02-18T18:28:39.871Z,6.45
2023-02-18T18:31:06.397Z,3.45
2023-02-18T18:33:32.878Z,5.63
2023-02-18T18:35:59.330Z,6.20
2023-02-18T18:38:25.819Z,6.75
2023-02-18T18:40:52.421Z,4.13
2023-02-18T18:43:18.927Z,9.20
2023-02-18T18:45:45.478Z,3.58
2023-02-18T18:48:11.943Z,5.93
2023-02-18T18:50:38.384Z,5.13
2023-02-18T18:53:04.883Z,4.63
2023-02-18T18:55:31.338Z,2.78
2023-02-18T18:57:57.841Z,2.63
2023-02-18T19:00:24.372Z,2.78
2023-02-18T19:02:50.867Z,5.00
2023-02-18T19:05:17.382Z,6.82
2023-02-18T19:07:43.876Z,2.97
2023-02-18T19:10:10.359Z,2.42
2023-02-18T19:12:36.869Z,9.50
2023-02-18T19:15:03.358Z,8.02
2023-02-18T19:17:29.836Z,5.80
2023-02-18T19:19:56.355Z,10.50
2023-02-18T19:22:22.835Z,6.25
2023-02-18T19:24:49.308Z,4.68
2023-02-18T19:27:15.778Z,4.18
2023-02-18T19:29:42.271Z,4.45
2023-02-18T19:32:08.814Z,9.70
2023-02-18T19:34:35.363Z,9.40
2023-02-18T19:37:01.847Z,5.35
2023-02-18T19:39:28.359Z,6.75
2023-02-18T19:41:54.848Z,5.25
2023-02-18T19:44:21.362Z,7.50
2023-02-18T19:46:47.914Z,7.10
2023-02-18T19:49:14.441Z,10.25
2023-02-18T19:51:40.949Z,11.25
2023-02-18T19:54:07.446Z,4.72
2023-02-18T19:56:33.905Z,6.28
2023-02-18T19:59:00.413Z,4.88
2023-02-18T20:01:26.902Z,2.80
2023-02-18T20:03:53.442Z,4.63
2023-02-18T20:06:19.985Z,4.53
2023-02-18T20:08:46.478Z,7.65
2023-02-18T20:11:12.980Z,5.97
2023-02-18T20:13:39.438Z,4.22
2023-02-18T20:16:05.926Z,6.72
2023-02-18T20:18:32.395Z,5.78
2023-02-18T20:20:58.864Z,8.55
2023-02-18T20:23:25.368Z,5.72
2023-02-18T20:25:51.850Z,2.78
2023-02-18T20:28:18.364Z,2.25
2023-02-18T20:30:44.895Z,6.90
2023-02-18T20:33:11.359Z,2.72
2023-02-18T20:35:37.816Z,5.50
2023-02-18T20:38:04.272Z,7.03
2023-02-18T20:40:30.725Z,5.60
2023-02-18T20:42:57.178Z,6.60
2023-02-18T20:45:23.678Z,8.20
2023-02-18T20:47:50.179Z,3.03
2023-02-18T20:50:16.667Z,4.00
2023-02-18T20:52:43.133Z,3.15
2023-02-18T20:55:09.622Z,9.23
2023-02-18T20:57:36.124Z,4.97
2023-02-18T21:00:02.608Z,3.13
2023-02-18T21:02:29.085Z,2.28
2023-02-18T21:04:55.547Z,4.13
2023-02-18T21:07:22.004Z,2.42
2023-02-18T21:09:48.536Z,4.18
2023-02-18T21:12:15.056Z,1.52
2023-02-18T21:14:41.506Z,3.42
2023-02-18T21:17:09.594Z,6.28
2023-02-18T21:19:36.121Z,4.32
2023-02-18T21:22:02.632Z,4.30
2023-02-18T21:24:29.130Z,3.20
2023-02-18T21:26:55.622Z,2.75
2023-02-18T21:29:22.112Z,4.50
2023-02-18T21:31:48.651Z,4.15
2023-02-18T21:34:15.249Z,2.20
2023-02-18T21:36:41.725Z,3.83
2023-02-18T21:39:08.354Z,5.78
2023-02-18T21:41:34.856Z,5.47
2023-02-18T21:44:02.085Z,1.52
2023-02-18T21:46:28.829Z,1.77
2023-02-18T21:48:55.503Z,6.40
2023-02-18T21:51:22.228Z,1.08
2023-02-18T21:53:48.677Z,2.22
2023-02-18T21:56:15.331Z,6.78
2023-02-18T21:58:41.889Z,4.25
2023-02-18T22:01:08.923Z,2.00
2023-02-18T22:03:35.677Z,2.43
2023-02-18T22:06:02.189Z,2.78
2023-02-18T22:08:28.777Z,5.07
2023-02-18T22:10:55.292Z,11.05
2023-02-18T22:13:21.771Z,1.23
2023-02-18T22:15:48.410Z,5.90
2023-02-18T22:18:14.944Z,2.55
2023-02-18T22:20:41.466Z,3.78
2023-02-18T22:23:07.936Z,1.55
2023-02-18T22:25:34.435Z,2.03
2023-02-18T22:28:00.895Z,2.22
2023-02-18T22:30:27.451Z,2.13
2023-02-18T22:32:53.997Z,1.55
2023-02-18T22:35:20.523Z,3.38
2023-02-18T22:37:47.018Z,3.25
2023-02-18T22:40:13.534Z,1.80
2023-02-18T22:42:40.000Z,2.40
2023-02-18T22:45:06.504Z,1.58
2023-02-18T22:47:33.016Z,3.22
2023-02-18T22:49:59.507Z,2.90
2023-02-18T22:52:26.012Z,2.13
2023-02-18T22:54:54.002Z,3.55
2023-02-18T22:57:21.486Z,1.33
2023-02-18T22:59:48.018Z,1.58
2023-02-18T23:02:14.490Z,2.97
2023-02-18T23:04:40.939Z,2.55
2023-02-18T23:07:07.513Z,2.05
2023-02-18T23:09:34.033Z,1.48
2023-02-18T23:12:00.554Z,4.13
2023-02-18T23:14:27.070Z,2.83
2023-02-18T23:16:53.537Z,4.15
2023-02-18T23:19:20.034Z,2.42
2023-02-18T23:21:46.503Z,2.08
2023-02-18T23:24:13.010Z,1.80
2023-02-18T23:26:39.503Z,3.33
2023-02-18T23:29:05.973Z,1.27
2023-02-18T23:31:32.549Z,1.08
2023-02-18T23:33:59.155Z,1.02
2023-02-18T23:36:25.615Z,3.22
2023-02-18T23:38:52.102Z,1.90
2023-02-18T23:41:18.803Z,2.22
2023-02-18T23:43:45.358Z,2.70
2023-02-18T23:46:11.980Z,4.07
2023-02-18T23:48:38.563Z,1.70
2023-02-18T23:51:05.120Z,2.08
2023-02-18T23:53:31.594Z,1.55
2023-02-18T23:55:58.055Z,2.55
2023-02-18T23:58:24.553Z,3.10
